Airfield :
LOGIN :

Register | Disclaimer

   EN    FR    IT 

 










Legend :    VFR   Marginal VFR   IFR   Intensive IFR   Very Intensive IFR
Visi :
Ceiling :
>= 8 km
>= 3000ft
5 to 8 km
1000 to 3000 ft
1500m to 5 km
500 to 1000 ft
800 to 1500m
200 to 500 ft
< 800m
< 200 ft
Symbols :   Thunderstorms  Fog  Heavy snow  Heavy precipitations  Wind > 20 kt
SIGMETs :     Misc.  Thunderstorms  Icing  Turbulence  Mountain Waves  Volcanic Ashes






- Airport Elevation : 961 ft
- IATA code : VIN


UKWW - Gavryshivka

CURRENT METAR :
  • 280730Z 02005MPS 330V090 9999 BKN020 14/12 Q1017 NOSIG

EXPIRED METARs :
  • 280700Z 03005MPS 310V070 9999 SCT012 13/11 Q1018 NOSIG
  • 280630Z 03004MPS 300V080 9999 BKN011 12/11 Q1018 NOSIG
  • 280600Z 03003MPS 320V100 9999 NSC 12/11 Q1019 NOSIG
  • 280530Z 02004MPS 320V070 9999 NSC 10/10 Q1019 NOSIG
  • 280500Z 03002MPS 310V070 9999 NSC 10/09 Q1019 NOSIG

TAF TAF UKWW
Valid from the 28 at 06:00 until the 28 at 15:00 UTC


280510Z 2806/2815 01004G09MPS 6000 -RA OVC015
TEMPO 2806/2809 2100 -SHRA SCT005 BKN015CB
TEMPO 2809/2815 VRB10G15MPS 1500 TSRA SQ SCT004 BKN012CB



MET'MAP, your aeronautical weather chart ! - Copyright ORBIFLY December 2007 - Disclaimer

ORBIFLY MET'MAP TEAM :

Programming & Development : Alexandra Zaïnal
Concept & original design : Baudouin d'Aumeries
Assistance for programming : Marc-Olivier Méhu
Technical & hardware support : Manuel Goepfert

Contact : metmap@orbifly.com




SOURCES & CREDITS :

   NOAA